^^
Grace C. Lehan Memorial Weather Station Historical Data
Daily Summary for April 17, 2021 Units:  Metric    English   Both
Daily Weekly Monthly Yearly
  High: Low: Average:
Temperature: 11 °C -1.2 °C 4.7 °C
Dew Point: 5.5 °C -2.4 °C 0.6 °C
Humidity: 93.5% 52.2% 76%
Wind Speed: 2.1km/h 0km/h 0.2km/h
Wind Gust: 11.3km/h - -
Wind- - SSW
Pressure: 1027 hPa 1022.2 hPa -
Precipitation: 0 mm    
 
 
Tabular Data for April 17, 2021
Time Temperature Dew Point Pressure Wind Wind Speed Wind Gust Humidity Rainfall Rate (Hourly) solar
00:04 0.8 °C -1.1 °C 1023.2 hPa Calm     87% 0 mm 0 W/m2
00:09 0.8 °C -1.2 °C 1023.2 hPa Calm     87% 0 mm 0 W/m2
00:14 0.7 °C -1.2 °C 1023.2 hPa Calm     87.1% 0 mm 0 W/m2
00:19 0.7 °C -1 °C 1023.6 hPa Calm     88% 0 mm 0 W/m2
00:24 0.8 °C -1 °C 1023.6 hPa Calm     88% 0 mm 0 W/m2
00:29 0.7 °C -1 °C 1023.2 hPa Calm     88% 0 mm 0 W/m2
00:34 0.7 °C -1.1 °C 1023.2 hPa Calm     88% 0 mm 0 W/m2
00:39 0.7 °C -1.1 °C 1023.6 hPa Calm     88% 0 mm 0 W/m2
00:44 0.7 °C -1.1 °C 1023.6 hPa Calm     88% 0 mm 0 W/m2
00:49 0.6 °C -1.2 °C 1023.2 hPa Calm     88% 0 mm 0 W/m2
00:54 0.5 °C -1.2 °C 1023.6 hPa Calm     88% 0 mm 0 W/m2
00:59 0.4 °C -1.3 °C 1023.6 hPa Calm     88% 0 mm 0 W/m2
01:04 0.4 °C -1.3 °C 1023.6 hPa Calm     88% 0 mm 0 W/m2
01:09 0.4 °C -1.3 °C 1023.6 hPa Calm     88% 0 mm 0 W/m2
01:14 0.3 °C -1.4 °C 1023.6 hPa Calm     88% 0 mm 0 W/m2
01:19 0.3 °C -1.4 °C 1023.9 hPa Calm     88% 0 mm 0 W/m2
01:24 0.3 °C -1.3 °C 1023.9 hPa Calm     88.8% 0 mm 0 W/m2
01:29 0.3 °C -1.3 °C 1023.9 hPa Calm     89% 0 mm 0 W/m2
01:34 0.3 °C -1.3 °C 1023.9 hPa Calm     89% 0 mm 0 W/m2
01:39 0.4 °C -1.1 °C 1023.9 hPa Calm     89.8% 0 mm 0 W/m2
01:44 0.4 °C -1.1 °C 1023.9 hPa Calm     90% 0 mm 0 W/m2
01:49 0.4 °C -1.1 °C 1023.9 hPa Calm     89.7% 0 mm 0 W/m2
01:54 0.3 °C -1.3 °C 1023.9 hPa Calm     89% 0 mm 0 W/m2
01:59 0.2 °C -1.4 °C 1024.3 hPa Calm     89% 0 mm 0 W/m2
02:04 0.1 °C -1.6 °C 1024.3 hPa Calm     89% 0 mm 0 W/m2
02:09 0 °C -1.6 °C 1024.3 hPa Calm     89% 0 mm 0 W/m2
02:14 -0.1 °C -1.7 °C 1023.9 hPa Calm     89.2% 0 mm 0 W/m2
02:19 -0.2 °C -1.6 °C 1023.9 hPa Calm     89.9% 0 mm 0 W/m2
02:24 -0.2 °C -1.6 °C 1023.9 hPa Calm     90% 0 mm 0 W/m2
02:29 -0.2 °C -1.6 °C 1023.9 hPa Calm     90% 0 mm 0 W/m2
02:34 -0.3 °C -1.7 °C 1023.9 hPa Calm     90% 0 mm 0 W/m2
02:39 -0.3 °C -1.8 °C 1023.9 hPa Calm     90% 0 mm 0 W/m2
02:44 -0.3 °C -1.8 °C 1023.9 hPa Calm     90.1% 0 mm 0 W/m2
02:49 -0.3 °C -1.6 °C 1024.3 hPa Calm     91% 0 mm 0 W/m2
02:54 -0.2 °C -1.6 °C 1023.9 hPa Calm     91% 0 mm 0 W/m2
02:59 -0.2 °C -1.4 °C 1024.3 hPa Calm     91% 0 mm 0 W/m2
03:04 -0.1 °C -1.4 °C 1024.3 hPa Calm     91% 0 mm 0 W/m2
03:09 -0.1 °C -1.4 °C 1024.3 hPa Calm     91% 0 mm 0 W/m2
03:14 -0.1 °C -1.5 °C 1024.3 hPa Calm     90.6% 0 mm 0 W/m2
03:19 -0.1 °C -1.5 °C 1024.3 hPa Calm     90.3% 0 mm 0 W/m2
03:24 -0.1 °C -1.4 °C 1024.3 hPa Calm     90.6% 0 mm 0 W/m2
03:29 -0.1 °C -1.4 °C 1024.3 hPa Calm     90.5% 0 mm 0 W/m2
03:34 -0.1 °C -1.5 °C 1024.3 hPa Calm     90% 0 mm 0 W/m2
03:39 -0.1 °C -1.6 °C 1024.3 hPa Calm     90% 0 mm 0 W/m2
03:44 -0.2 °C -1.7 °C 1024.3 hPa Calm     90% 0 mm 0 W/m2
03:49 -0.3 °C -1.7 °C 1024.3 hPa Calm     90% 0 mm 0 W/m2
03:54 -0.3 °C -1.7 °C 1024.3 hPa Calm     90% 0 mm 0 W/m2
03:59 -0.3 °C -1.8 °C 1024.3 hPa Calm     90% 0 mm 0 W/m2
04:09 -0.4 °C -1.8 °C 1024.3 hPa Calm     90% 0 mm 0 W/m2
04:14 -0.4 °C -1.9 °C 1024.3 hPa Calm     90% 0 mm 0 W/m2
04:19 -0.4 °C -1.9 °C 1024.6 hPa Calm     90% 0 mm 0 W/m2
04:24 -0.4 °C -1.9 °C 1024.6 hPa Calm     90% 0 mm 0 W/m2
04:29 -0.5 °C -1.9 °C 1024.6 hPa Calm     90% 0 mm 0 W/m2
04:34 -0.6 °C -2 °C 1024.6 hPa Calm     90% 0 mm 0 W/m2
04:39 -0.7 °C -2.1 °C 1024.6 hPa Calm     90% 0 mm 0 W/m2
04:44 -0.7 °C -2.2 °C 1024.6 hPa Calm     90% 0 mm 0 W/m2
04:49 -0.8 °C -2.2 °C 1024.6 hPa Calm     90% 0 mm 0 W/m2
04:54 -0.8 °C -2.2 °C 1024.6 hPa Calm     90.1% 0 mm 0 W/m2
04:59 -0.8 °C -2.2 °C 1024.6 hPa Calm     90% 0 mm 0 W/m2
05:04 -0.8 °C -2.2 °C 1024.6 hPa Calm     90.7% 0 mm 0 W/m2
05:09 -0.8 °C -2.1 °C 1024.6 hPa Calm     91% 0 mm 0 W/m2
05:14 -0.8 °C -2.2 °C 1024.6 hPa Calm     91% 0 mm 0 W/m2
05:19 -0.9 °C -2.2 °C 1024.6 hPa Calm     91% 0 mm 0 W/m2
05:24 -0.9 °C -2.2 °C 1024.6 hPa Calm     91% 0 mm 0 W/m2
05:29 -0.9 °C -2.2 °C 1024.9 hPa Calm     91% 0 mm 0 W/m2
05:34 -0.9 °C -2.2 °C 1024.9 hPa Calm     91% 0 mm 0 W/m2
05:39 -0.9 °C -2.2 °C 1025.3 hPa Calm     91% 0 mm 0 W/m2
05:44 -0.9 °C -2.2 °C 1025.3 hPa Calm     91% 0 mm 0 W/m2
05:49 -0.9 °C -2.2 °C 1025.3 hPa Calm     91% 0 mm 0 W/m2
05:54 -0.9 °C -2.3 °C 1025.3 hPa Calm     91% 0 mm 0 W/m2
05:59 -1 °C -2.3 °C 1025.6 hPa Calm     91% 0 mm 0 W/m2
06:04 -1.1 °C -2.3 °C 1025.6 hPa Calm     91% 0 mm 0 W/m2
06:09 -1.1 °C -2.3 °C 1025.6 hPa Calm     91% 0 mm 0 W/m2
06:14 -1.1 °C -2.2 °C 1025.6 hPa Calm     91.9% 0 mm 0 W/m2
06:19 -1.1 °C -2.2 °C 1025.6 hPa Calm     92% 0 mm 0 W/m2
06:24 -1.1 °C -2.4 °C 1025.6 hPa Calm     91.2% 0 mm 0 W/m2
06:29 -1.2 °C -2.3 °C 1025.3 hPa Calm     91.8% 0 mm 0 W/m2
06:34 -1.2 °C -2.3 °C 1025.6 hPa Calm     92% 0 mm 0 W/m2
06:39 -1.1 °C -2.2 °C 1025.6 hPa Calm     92% 0 mm 0 W/m2
06:44 -0.9 °C -2.1 °C 1025.6 hPa Calm     92% 0 mm 0 W/m2
06:49 -0.8 °C -1.9 °C 1025.6 hPa Calm     92.4% 0 mm 5 W/m2
06:54 -0.7 °C -1.7 °C 1026 hPa Calm     93% 0 mm 9 W/m2
06:59 -0.8 °C -1.8 °C 1026 hPa Calm     92.3% 0 mm 11 W/m2
07:04 -0.8 °C -1.9 °C 1026 hPa Calm     92% 0 mm 14 W/m2
07:09 -0.8 °C -1.9 °C 1026 hPa Calm     92% 0 mm 21 W/m2
07:14 -0.8 °C -1.9 °C 1026.3 hPa Calm     92% 0 mm 23 W/m2
07:19 -0.8 °C -1.8 °C 1026.3 hPa Calm     92.9% 0 mm 25 W/m2
07:24 -0.7 °C -1.7 °C 1026.6 hPa Calm     92.6% 0 mm 39 W/m2
07:29 -0.6 °C -1.6 °C 1026.6 hPa Calm     93% 0 mm 39 W/m2
07:34 -0.5 °C -1.5 °C 1026.6 hPa Calm     93% 0 mm 39 W/m2
07:39 -0.4 °C -1.4 °C 1026.6 hPa Calm     93% 0 mm 39 W/m2
07:44 -0.2 °C -1.2 °C 1026.6 hPa Calm     93% 0 mm 63 W/m2
07:49 -0.1 °C -1.1 °C 1026.6 hPa Calm     93% 0 mm 62 W/m2
07:54 0.1 °C -0.9 °C 1026.6 hPa Calm     93% 0 mm 90 W/m2
07:59 0.3 °C -0.6 °C 1026.6 hPa Calm     93% 0 mm 163 W/m2
08:00 0.5 °C -0.5 °C 1026.6 hPa Calm     93% 0 mm 151 W/m2
08:09 1.1 °C 0.1 °C 1026.6 hPa Calm     93% 0 mm 195 W/m2
08:14 1.6 °C 0.7 °C 1026.6 hPa Calm     93.5% 0 mm 216 W/m2
08:19 2.3 °C 1.3 °C 1026.6 hPa Calm     93.2% 0 mm 237 W/m2
08:24 2.9 °C 1.8 °C 1026.6 hPa Calm     92% 0 mm 248 W/m2
08:29 3.6 °C 2.1 °C 1026.6 hPa Calm     89.9% 0 mm 258 W/m2
08:34 4.2 °C 2.1 °C 1026.6 hPa Calm     86.5% 0 mm 271 W/m2
08:39 4.7 °C 2.2 °C 1026.6 hPa Calm     83.3% 0 mm 281 W/m2
08:44 5.2 °C 2.1 °C 1027 hPa Calm     80.5% 0 mm 292 W/m2
08:49 5.7 °C 2.3 °C 1027 hPa Calm     78.9% 0 mm 302 W/m2
08:54 6 °C 2.1 °C 1027 hPa Calm     75.7% 0 mm 302 W/m2
08:59 6.2 °C 2.1 °C 1026.6 hPa Calm     75% 0 mm 285 W/m2
09:04 6.3 °C 2.1 °C 1026.6 hPa Calm     74.3% 0 mm 294 W/m2
09:09 6.3 °C 1.8 °C 1026.6 hPa Calm     73% 0 mm 172 W/m2
09:14 6.3 °C 2.1 °C 1026.6 hPa Calm     73.9% 0 mm 246 W/m2
09:19 6.4 °C 1.9 °C 1026.6 hPa Calm     73.1% 0 mm 272 W/m2
09:24 6.3 °C 1.4 °C 1026.6 hPa Calm     70.9% 0 mm 167 W/m2
09:29 6.2 °C 1.3 °C 1026.6 hPa Calm     71.2% 0 mm 114 W/m2
09:34 6.1 °C 1.2 °C 1026.6 hPa Calm     71.1% 0 mm 105 W/m2
09:39 5.8 °C 0.9 °C 1026.6 hPa Calm     70.3% 0 mm 105 W/m2
09:44 5.7 °C 0.7 °C 1026.6 hPa Calm     70.3% 0 mm 134 W/m2
09:49 5.6 °C 0.8 °C 1026.6 hPa Calm     71.5% 0 mm 167 W/m2
09:54 5.5 °C 0.9 °C 1026.6 hPa Calm     72% 0 mm 207 W/m2
09:59 5.6 °C 0.8 °C 1026.6 hPa Calm     71.7% 0 mm 229 W/m2
10:04 5.6 °C 0.8 °C 1026.6 hPa Calm     71.1% 0 mm 211 W/m2
10:09 5.7 °C 0.9 °C 1026.3 hPa Calm     71% 0 mm 193 W/m2
10:14 5.8 °C 1.2 °C 1026.3 hPa Calm     72.1% 0 mm 172 W/m2
10:19 6.1 °C 1.4 °C 1026.3 hPa Calm     72.3% 0 mm 156 W/m2
10:24 6.2 °C 1.2 °C 1026.3 hPa WSW 0.2 km/h 3.2 km/h 70.7% 0 mm 146 W/m2
10:29 6.3 °C 1.3 °C 1026 hPa Calm   3.2 km/h 70.3% 0 mm 144 W/m2
10:34 6.3 °C 1.1 °C 1026 hPa Calm   3.2 km/h 69.1% 0 mm 148 W/m2
10:39 6.4 °C 0.9 °C 1026 hPa Calm     67.9% 0 mm 149 W/m2
10:44 6.4 °C 0.9 °C 1026 hPa Calm     67.9% 0 mm 160 W/m2
10:49 6.5 °C 1.2 °C 1026 hPa WSW 0.2 km/h 3.2 km/h 68.6% 0 mm 165 W/m2
10:54 6.7 °C 1.3 °C 1026 hPa Calm   3.2 km/h 68.6% 0 mm 165 W/m2
10:59 6.8 °C 1.4 °C 1026.3 hPa Calm   3.2 km/h 68.3% 0 mm 156 W/m2
11:04 7 °C 1.4 °C 1026 hPa Calm   3.2 km/h 67.7% 0 mm 148 W/m2
11:09 7.1 °C 1 °C 1026 hPa Calm     65.4% 0 mm 162 W/m2
11:14 7.1 °C 1.1 °C 1026 hPa Calm     65.4% 0 mm 193 W/m2
11:19 7.2 °C 1.1 °C 1026 hPa Calm     65.1% 0 mm 243 W/m2
11:24 7.3 °C 1.4 °C 1026 hPa Calm     66% 0 mm 246 W/m2
11:29 7.5 °C 1.1 °C 1026 hPa Calm     63.7% 0 mm 214 W/m2
11:34 7.7 °C 0.9 °C 1025.6 hPa WSW 1.1 km/h 6.4 km/h 62.2% 0 mm 248 W/m2
11:39 7.8 °C 1.2 °C 1025.6 hPa WSW 0.5 km/h 6.4 km/h 62.5% 0 mm 220 W/m2
11:44 8.1 °C 1 °C 1025.3 hPa Calm   6.4 km/h 61.1% 0 mm 272 W/m2
11:49 8.2 °C 1.1 °C 1025.3 hPa Calm   6.4 km/h 60.4% 0 mm 272 W/m2
11:54 8.4 °C 1 °C 1025.3 hPa SW 0.3 km/h 6.4 km/h 59.5% 0 mm 227 W/m2
11:59 8.6 °C 1.1 °C 1025.3 hPa SW 0.6 km/h 6.4 km/h 59.4% 0 mm 232 W/m2
12:00 8.7 °C 0.9 °C 1024.9 hPa Calm   6.4 km/h 58% 0 mm 223 W/m2
12:09 8.9 °C 1.3 °C 1024.9 hPa SW 0.8 km/h 4.8 km/h 58.8% 0 mm 214 W/m2
12:14 9.1 °C 1.1 °C 1024.6 hPa SW 0.2 km/h 4.8 km/h 57.4% 0 mm 225 W/m2
12:19 9.2 °C 1 °C 1024.6 hPa SW 0.2 km/h 4.8 km/h 56.6% 0 mm 241 W/m2
12:24 9.2 °C 0.8 °C 1024.6 hPa SSW 1.6 km/h 8 km/h 56% 0 mm 248 W/m2
12:29 9.2 °C 0.7 °C 1024.6 hPa SSW 0.6 km/h 8 km/h 55.3% 0 mm 199 W/m2
12:34 9.2 °C 1 °C 1024.3 hPa Calm   8 km/h 56.3% 0 mm 190 W/m2
12:39 9.4 °C 1.1 °C 1024.3 hPa South 1.1 km/h 8 km/h 56% 0 mm 178 W/m2
12:44 9.4 °C 1.1 °C 1024.3 hPa South 0.8 km/h 8 km/h 55.7% 0 mm 179 W/m2
12:49 9.5 °C 0.8 °C 1023.9 hPa South 1.6 km/h 8 km/h 54.6% 0 mm 183 W/m2
12:54 9.6 °C 0.8 °C 1023.9 hPa SSW 1.6 km/h 8 km/h 54.1% 0 mm 190 W/m2
12:59 9.8 °C 1 °C 1023.9 hPa SSW 0.2 km/h 8 km/h 54.3% 0 mm 186 W/m2
13:04 9.8 °C 1.1 °C 1023.9 hPa SSW 0.3 km/h 8 km/h 54.5% 0 mm 174 W/m2
13:09 9.8 °C 0.8 °C 1023.9 hPa South 1.1 km/h 8 km/h 53.3% 0 mm 190 W/m2
13:14 9.9 °C 1.1 °C 1023.6 hPa SW 1 km/h 11.3 km/h 54% 0 mm 207 W/m2
13:19 10 °C 1 °C 1023.6 hPa South 0.6 km/h 11.3 km/h 53.4% 0 mm 225 W/m2
13:24 10.1 °C 1.1 °C 1023.6 hPa SSE 0.2 km/h 11.3 km/h 53.2% 0 mm 241 W/m2
13:29 10.3 °C 0.9 °C 1023.6 hPa Calm   11.3 km/h 52.3% 0 mm 197 W/m2
13:34 10.3 °C 1 °C 1023.6 hPa SE 1.1 km/h 11.3 km/h 52.2% 0 mm 199 W/m2
13:39 10.4 °C 1.2 °C 1023.6 hPa SSE 0.6 km/h 9.7 km/h 52.7% 0 mm 144 W/m2
13:44 10.4 °C 1.4 °C 1023.6 hPa SSE 0.5 km/h 9.7 km/h 53.5% 0 mm 135 W/m2
13:49 10.4 °C 1.7 °C 1023.2 hPa SSE 1 km/h 9.7 km/h 54.5% 0 mm 139 W/m2
13:54 10.4 °C 2 °C 1023.2 hPa SSE 1.3 km/h 9.7 km/h 55.8% 0 mm 137 W/m2
13:59 10.4 °C 2.2 °C 1023.2 hPa South 0.3 km/h 9.7 km/h 56.8% 0 mm 135 W/m2
14:04 10.4 °C 2.4 °C 1023.2 hPa SSE 0.3 km/h 9.7 km/h 57.4% 0 mm 134 W/m2
14:09 10.5 °C 2.8 °C 1023.2 hPa SSE 0.8 km/h 6.4 km/h 59% 0 mm 127 W/m2
14:14 10.5 °C 3.1 °C 1022.9 hPa South 0.8 km/h 6.4 km/h 59.8% 0 mm 116 W/m2
14:19 10.6 °C 3.1 °C 1023.2 hPa South 0.5 km/h 6.4 km/h 60% 0 mm 116 W/m2
14:24 10.6 °C 3.2 °C 1023.2 hPa South 2.1 km/h 6.4 km/h 60.4% 0 mm 121 W/m2
14:29 10.6 °C 3.3 °C 1023.2 hPa South 1.1 km/h 6.4 km/h 61% 0 mm 114 W/m2
14:34 10.6 °C 3.6 °C 1023.2 hPa South 1.4 km/h 9.7 km/h 61.9% 0 mm 109 W/m2
14:39 10.7 °C 3.7 °C 1023.2 hPa SW 1.8 km/h 9.7 km/h 61.9% 0 mm 114 W/m2
14:44 10.7 °C 3.4 °C 1023.2 hPa SSW 1.1 km/h 9.7 km/h 60.6% 0 mm 114 W/m2
14:49 10.8 °C 3.4 °C 1022.9 hPa South 0.8 km/h 9.7 km/h 60.3% 0 mm 111 W/m2
14:54 10.9 °C 3.6 °C 1023.2 hPa South 0.2 km/h 9.7 km/h 60.9% 0 mm 107 W/m2
14:59 10.9 °C 3.4 °C 1023.2 hPa South 1 km/h 9.7 km/h 59.8% 0 mm 116 W/m2
15:04 11 °C 2.9 °C 1023.2 hPa South 1.8 km/h 9.7 km/h 57.2% 0 mm 118 W/m2
15:09 11 °C 2.8 °C 1023.2 hPa SSW 1.6 km/h 11.3 km/h 56.7% 0 mm 107 W/m2
15:14 11 °C 2.7 °C 1022.9 hPa SW 2.1 km/h 11.3 km/h 56.6% 0 mm 97 W/m2
15:19 11 °C 2.8 °C 1022.9 hPa SSW 1.3 km/h 11.3 km/h 56.9% 0 mm 86 W/m2
15:30 10.9 °C 2.8 °C 1022.9 hPa South 1.6 km/h 11.3 km/h 57% 0 mm 83 W/m2
16:04 10.6 °C 3.2 °C 1022.9 hPa South 0.2 km/h 11.3 km/h 59.8% 0 mm 83 W/m2
16:09 10.6 °C 3.2 °C 1023.2 hPa Calm   1.6 km/h 60% 0 mm 12 W/m2
16:14 10.6 °C 3.1 °C 1022.9 hPa Calm   3.2 km/h 60% 0 mm 11 W/m2
16:19 10.6 °C 3.1 °C 1022.9 hPa South 0.2 km/h 3.2 km/h 60% 0 mm 9 W/m2
16:24 10.5 °C 3.1 °C 1022.9 hPa South 0.8 km/h 6.4 km/h 60% 0 mm 7 W/m2
16:29 10.5 °C 3.1 °C 1022.9 hPa Calm   6.4 km/h 60% 0 mm 5 W/m2
16:34 10.4 °C 3.2 °C 1022.9 hPa Calm   6.4 km/h 60.8% 0 mm 0 W/m2
16:39 10.4 °C 3.2 °C 1022.6 hPa Calm     61% 0 mm 0 W/m2
16:44 10.3 °C 3.4 °C 1022.6 hPa Calm   1.6 km/h 62.1% 0 mm 0 W/m2
16:49 10.3 °C 3.6 °C 1022.6 hPa Calm   1.6 km/h 63% 0 mm 0 W/m2
16:54 10.3 °C 3.7 °C 1022.6 hPa South 0.3 km/h 3.2 km/h 63.8% 0 mm 0 W/m2
16:59 10.3 °C 3.9 °C 1022.9 hPa Calm   3.2 km/h 64.4% 0 mm 0 W/m2
17:04 10.3 °C 4 °C 1022.9 hPa South 0.2 km/h 4.8 km/h 65% 0 mm 0 W/m2
17:09 10.3 °C 4.1 °C 1022.9 hPa South 0.3 km/h 4.8 km/h 65.6% 0 mm 0 W/m2
17:14 10.3 °C 4.2 °C 1022.6 hPa South 0.6 km/h 9.7 km/h 66% 0 mm 0 W/m2
17:19 10.3 °C 4.3 °C 1022.6 hPa South 0.5 km/h 9.7 km/h 66% 0 mm 0 W/m2
17:24 10.4 °C 4.3 °C 1022.6 hPa South 0.5 km/h 9.7 km/h 66.1% 0 mm 0 W/m2
17:29 10.3 °C 4.5 °C 1022.6 hPa South 0.2 km/h 9.7 km/h 67% 0 mm 0 W/m2
17:34 10.3 °C 4.5 °C 1022.6 hPa Calm   9.7 km/h 67% 0 mm 0 W/m2
17:39 10.3 °C 4.6 °C 1022.6 hPa Calm   1.6 km/h 67.7% 0 mm 0 W/m2
17:44 10.3 °C 4.6 °C 1022.2 hPa Calm   1.6 km/h 68% 0 mm 0 W/m2
17:49 10.3 °C 4.6 °C 1022.6 hPa Calm   1.6 km/h 68% 0 mm 0 W/m2
17:54 10.3 °C 4.6 °C 1022.2 hPa Calm   1.6 km/h 68% 0 mm 0 W/m2
17:59 10.3 °C 4.8 °C 1022.2 hPa South 0.2 km/h 3.2 km/h 68.6% 0 mm 0 W/m2
18:04 10.3 °C 4.8 °C 1022.2 hPa Calm   3.2 km/h 69% 0 mm 0 W/m2
18:09 10.3 °C 4.9 °C 1022.6 hPa Calm     69% 0 mm 0 W/m2
18:14 10.3 °C 4.9 °C 1022.2 hPa Calm     69% 0 mm 0 W/m2
18:19 10.3 °C 5.1 °C 1022.2 hPa Calm     70% 0 mm 0 W/m2
18:24 10.3 °C 5.1 °C 1022.2 hPa Calm     70% 0 mm 0 W/m2
18:29 10.4 °C 5.2 °C 1022.2 hPa Calm     70% 0 mm 0 W/m2
18:33 10.4 °C 5.3 °C 1022.2 hPa Calm     70.5% 0 mm 0 W/m2
18:38 10.5 °C 5.5 °C 1022.6 hPa Calm     71% 0 mm 0 W/m2
Hartford County Weather
Compliments of Weather Underground - 4 mb